createdAt,value
2019-01-17T00:00:05.653Z,5.36
2019-01-17T00:01:05.639Z,5.32
2019-01-17T00:02:05.631Z,5.29
2019-01-17T00:03:05.619Z,5.23
2019-01-17T00:04:05.608Z,5.28
2019-01-17T00:05:05.598Z,5.26
2019-01-17T00:06:05.585Z,5.29
2019-01-17T00:07:05.574Z,5.31
2019-01-17T00:08:05.561Z,5.31
2019-01-17T00:09:05.554Z,5.34
2019-01-17T00:10:05.541Z,5.36
2019-01-17T00:11:05.532Z,5.40
2019-01-17T00:12:05.518Z,5.39
2019-01-17T00:13:05.507Z,5.41
2019-01-17T00:14:05.497Z,5.39
2019-01-17T00:15:05.485Z,5.39
2019-01-17T00:16:05.480Z,5.34
2019-01-17T00:17:05.463Z,5.28
2019-01-17T00:18:05.452Z,5.21
2019-01-17T00:19:05.442Z,5.14
2019-01-17T00:20:05.432Z,5.11
2019-01-17T00:21:05.423Z,5.13
2019-01-17T00:22:05.411Z,5.13
2019-01-17T00:23:05.399Z,5.13
2019-01-17T00:24:05.386Z,5.14
2019-01-17T00:25:05.375Z,5.13
2019-01-17T00:26:05.367Z,5.11
2019-01-17T00:27:05.359Z,5.10
2019-01-17T00:28:05.344Z,5.13
2019-01-17T00:29:06.173Z,5.13
2019-01-17T00:30:05.322Z,5.13
2019-01-17T00:31:05.310Z,5.11
2019-01-17T00:32:05.301Z,5.13
2019-01-17T00:33:05.289Z,5.13
2019-01-17T00:34:05.280Z,5.16
2019-01-17T00:35:05.270Z,5.18
2019-01-17T00:36:05.257Z,5.21
2019-01-17T00:37:05.245Z,5.21
2019-01-17T00:38:05.236Z,5.22
2019-01-17T00:39:05.223Z,5.22
2019-01-17T00:40:05.215Z,5.28
2019-01-17T00:41:05.207Z,5.29
2019-01-17T00:42:05.190Z,5.29
2019-01-17T00:43:05.182Z,5.32
2019-01-17T00:44:05.169Z,5.32
2019-01-17T00:45:05.159Z,5.29
2019-01-17T00:46:05.151Z,5.23
2019-01-17T00:47:05.138Z,5.25
2019-01-17T00:48:05.127Z,5.29
2019-01-17T00:49:05.115Z,5.28
2019-01-17T00:50:05.105Z,5.25
2019-01-17T00:51:05.094Z,5.19
2019-01-17T00:52:05.082Z,5.16
2019-01-17T00:53:05.076Z,5.11
2019-01-17T00:54:09.041Z,5.11
2019-01-17T00:55:05.048Z,5.13
2019-01-17T00:56:05.039Z,5.16
2019-01-17T00:57:05.027Z,5.14
2019-01-17T00:58:05.018Z,5.18
2019-01-17T00:59:05.004Z,5.19
2019-01-17T01:00:04.994Z,5.18
2019-01-17T01:01:04.983Z,5.21
2019-01-17T01:02:04.972Z,5.18
2019-01-17T01:03:04.961Z,5.19
2019-01-17T01:04:04.959Z,5.18
2019-01-17T01:05:04.940Z,5.14
2019-01-17T01:06:04.928Z,5.08
2019-01-17T01:07:04.918Z,5.07
2019-01-17T01:08:04.906Z,5.07
2019-01-17T01:09:04.900Z,5.00
2019-01-17T01:10:04.886Z,4.98
2019-01-17T01:11:04.881Z,5.01
2019-01-17T01:12:04.862Z,4.95
2019-01-17T01:13:04.858Z,4.96
2019-01-17T01:14:04.845Z,4.95
2019-01-17T01:15:04.837Z,4.90
2019-01-17T01:16:04.820Z,4.86
2019-01-17T01:17:04.813Z,4.85
2019-01-17T01:18:04.798Z,4.83
2019-01-17T01:19:04.790Z,4.83
2019-01-17T01:20:04.779Z,4.86
2019-01-17T01:21:04.771Z,4.87
2019-01-17T01:22:04.756Z,4.87
2019-01-17T01:23:04.749Z,4.79
2019-01-17T01:24:04.732Z,4.79
2019-01-17T01:25:04.724Z,4.75
2019-01-17T01:26:04.710Z,4.75
2019-01-17T01:27:04.701Z,4.75
2019-01-17T01:28:04.690Z,4.72
2019-01-17T01:29:04.691Z,4.72
2019-01-17T01:30:04.670Z,4.71
2019-01-17T01:31:04.657Z,4.71
2019-01-17T01:32:04.646Z,4.71
2019-01-17T01:33:04.640Z,4.69
2019-01-17T01:34:04.625Z,4.69
2019-01-17T01:35:04.615Z,4.71
2019-01-17T01:36:04.602Z,4.69
2019-01-17T01:37:04.591Z,4.71
2019-01-17T01:38:04.584Z,4.67
2019-01-17T01:39:04.569Z,4.67
2019-01-17T01:40:04.559Z,4.68
2019-01-17T01:41:04.550Z,4.68
2019-01-17T01:42:04.538Z,4.69
2019-01-17T01:43:04.526Z,4.68
2019-01-17T01:44:04.514Z,4.65
2019-01-17T01:45:04.520Z,4.65
2019-01-17T01:46:04.532Z,4.68
2019-01-17T01:47:04.483Z,4.71
2019-01-17T01:48:04.472Z,4.71
2019-01-17T01:49:04.461Z,4.72
2019-01-17T01:50:04.448Z,4.72
2019-01-17T01:51:04.439Z,4.74
2019-01-17T01:52:04.434Z,4.75
2019-01-17T01:53:04.418Z,4.75
2019-01-17T01:54:04.403Z,4.74
2019-01-17T01:55:04.393Z,4.69
2019-01-17T01:56:04.386Z,4.68
2019-01-17T01:57:04.372Z,4.68
2019-01-17T01:58:04.362Z,4.67
2019-01-17T01:59:04.352Z,4.68
2019-01-17T02:00:04.342Z,4.67
2019-01-17T02:01:04.329Z,4.64
2019-01-17T02:02:04.318Z,4.65
2019-01-17T02:03:04.308Z,4.67
2019-01-17T02:04:04.295Z,4.71
2019-01-17T02:05:04.286Z,4.75
2019-01-17T02:06:04.275Z,4.80
2019-01-17T02:07:04.264Z,4.82
2019-01-17T02:08:04.262Z,4.80
2019-01-17T02:09:04.240Z,4.79
2019-01-17T02:10:04.230Z,4.80
2019-01-17T02:11:04.220Z,4.82
2019-01-17T02:12:04.211Z,4.82
2019-01-17T02:13:04.199Z,4.86
2019-01-17T02:14:04.185Z,4.90
2019-01-17T02:15:04.176Z,4.92
2019-01-17T02:16:04.162Z,4.90
2019-01-17T02:17:04.160Z,4.90
2019-01-17T02:18:04.143Z,4.89
2019-01-17T02:19:04.131Z,4.89
2019-01-17T02:20:04.121Z,4.89
2019-01-17T02:21:04.109Z,4.90
2019-01-17T02:22:04.098Z,4.87
2019-01-17T02:23:04.089Z,4.87
2019-01-17T02:24:04.077Z,4.89
2019-01-17T02:25:04.064Z,4.90
2019-01-17T02:26:04.054Z,4.93
2019-01-17T02:27:04.045Z,4.96
2019-01-17T02:28:04.033Z,4.96
2019-01-17T02:29:04.022Z,4.96
2019-01-17T02:30:04.011Z,4.93
2019-01-17T02:31:03.999Z,4.90
2019-01-17T02:32:03.989Z,4.90
2019-01-17T02:33:03.976Z,4.92
2019-01-17T02:34:03.965Z,4.92
2019-01-17T02:35:03.958Z,4.92
2019-01-17T02:36:03.947Z,4.90
2019-01-17T02:37:03.936Z,4.92
2019-01-17T02:38:03.923Z,4.95
2019-01-17T02:39:03.911Z,5.00
2019-01-17T02:40:03.900Z,5.05
2019-01-17T02:41:03.893Z,5.08
2019-01-17T02:42:03.881Z,5.13
2019-01-17T02:43:03.910Z,5.10
2019-01-17T02:44:03.857Z,5.14
2019-01-17T02:45:03.850Z,5.11
2019-01-17T02:46:03.835Z,5.10
2019-01-17T02:47:03.825Z,5.07
2019-01-17T02:48:03.814Z,5.01
2019-01-17T02:49:03.802Z,5.01
2019-01-17T02:50:03.791Z,5.01
2019-01-17T02:51:03.780Z,5.04
2019-01-17T02:52:03.770Z,5.03
2019-01-17T02:53:03.759Z,5.04
2019-01-17T02:54:03.852Z,5.04
2019-01-17T02:55:03.742Z,5.05
2019-01-17T02:56:03.728Z,5.05
2019-01-17T02:57:03.718Z,5.08
2019-01-17T02:58:03.705Z,5.13
2019-01-17T02:59:03.696Z,5.18
2019-01-17T03:00:03.682Z,5.21
2019-01-17T03:01:03.675Z,5.19
2019-01-17T03:02:03.666Z,5.18
2019-01-17T03:03:03.660Z,5.16
2019-01-17T03:04:03.644Z,5.16
2019-01-17T03:05:03.635Z,5.19
2019-01-17T03:06:03.623Z,5.21
2019-01-17T03:07:03.622Z,5.22
2019-01-17T03:08:03.597Z,5.22
2019-01-17T03:09:03.594Z,5.26
2019-01-17T03:10:03.576Z,5.31
2019-01-17T03:11:03.565Z,5.37
2019-01-17T03:12:03.553Z,5.37
2019-01-17T03:13:03.542Z,5.37
2019-01-17T03:14:03.542Z,5.36
2019-01-17T03:15:03.522Z,5.37
2019-01-17T03:16:03.527Z,5.36
2019-01-17T03:17:03.498Z,5.36
2019-01-17T03:18:03.489Z,5.28
2019-01-17T03:19:03.486Z,5.23
2019-01-17T03:20:03.469Z,5.25
2019-01-17T03:21:03.455Z,5.23
2019-01-17T03:22:03.448Z,5.21
2019-01-17T03:23:03.432Z,5.19
2019-01-17T03:24:03.423Z,5.19
2019-01-17T03:25:03.411Z,5.10
2019-01-17T03:26:03.402Z,5.05
2019-01-17T03:27:03.389Z,5.00
2019-01-17T03:28:03.377Z,4.96
2019-01-17T03:29:03.367Z,4.96
2019-01-17T03:30:03.379Z,4.96
2019-01-17T03:31:03.357Z,4.93
2019-01-17T03:32:03.346Z,4.93
2019-01-17T03:33:03.338Z,4.90
2019-01-17T03:34:03.313Z,4.86
2019-01-17T03:35:03.301Z,4.86
2019-01-17T03:36:03.291Z,4.87
2019-01-17T03:37:03.279Z,4.87
2019-01-17T03:38:03.267Z,4.86
2019-01-17T03:39:03.257Z,4.87
2019-01-17T03:40:03.257Z,4.90
2019-01-17T03:41:03.237Z,4.92
2019-01-17T03:42:03.224Z,4.93
2019-01-17T03:43:03.213Z,4.93
2019-01-17T03:44:03.203Z,4.90
2019-01-17T03:45:03.205Z,4.85
2019-01-17T03:46:03.182Z,4.82
2019-01-17T03:47:03.168Z,4.80
2019-01-17T03:48:03.158Z,4.80
2019-01-17T03:49:03.149Z,4.79
2019-01-17T03:50:03.138Z,4.82
2019-01-17T03:51:03.126Z,4.83
2019-01-17T03:52:03.118Z,4.80
2019-01-17T03:53:03.115Z,4.80
2019-01-17T03:54:03.094Z,4.79
2019-01-17T03:55:03.083Z,4.77
2019-01-17T03:56:03.075Z,4.79
2019-01-17T03:57:03.064Z,4.79
2019-01-17T03:58:03.051Z,4.77
2019-01-17T03:59:03.038Z,4.72
2019-01-17T04:00:03.034Z,4.71
2019-01-17T04:01:03.017Z,4.71
2019-01-17T04:02:03.007Z,4.74
2019-01-17T04:03:02.994Z,4.74
2019-01-17T04:04:03.000Z,4.69
2019-01-17T04:05:02.977Z,4.69
2019-01-17T04:06:02.963Z,4.69
2019-01-17T04:07:02.954Z,4.69
2019-01-17T04:08:02.943Z,4.68
2019-01-17T04:09:02.937Z,4.72
2019-01-17T04:10:02.920Z,4.75
2019-01-17T04:11:02.908Z,4.80
2019-01-17T04:12:02.898Z,4.85
2019-01-17T04:13:02.888Z,4.80
2019-01-17T04:14:02.877Z,4.79
2019-01-17T04:15:02.863Z,4.77
2019-01-17T04:16:02.859Z,4.82
2019-01-17T04:17:02.844Z,4.83
2019-01-17T04:18:02.837Z,4.83
2019-01-17T04:19:02.821Z,4.83
2019-01-17T04:20:02.809Z,4.86
2019-01-17T04:21:02.798Z,4.86
2019-01-17T04:22:02.792Z,4.86
2019-01-17T04:23:02.782Z,4.80
2019-01-17T04:24:02.768Z,4.82
2019-01-17T04:25:02.756Z,4.79
2019-01-17T04:26:02.743Z,4.79
2019-01-17T04:27:02.741Z,4.77
2019-01-17T04:28:02.723Z,4.77
2019-01-17T04:29:02.712Z,4.80
2019-01-17T04:30:02.712Z,4.83
2019-01-17T04:31:02.690Z,4.85
2019-01-17T04:32:02.680Z,4.87
2019-01-17T04:33:02.666Z,4.90
2019-01-17T04:34:02.656Z,4.92
2019-01-17T04:35:02.646Z,4.93
2019-01-17T04:36:02.634Z,4.96
2019-01-17T04:37:02.622Z,4.95
2019-01-17T04:38:02.611Z,4.96
2019-01-17T04:39:02.605Z,4.95
2019-01-17T04:40:02.591Z,4.95
2019-01-17T04:41:02.582Z,4.96
2019-01-17T04:42:02.571Z,4.96
2019-01-17T04:43:02.560Z,4.95
2019-01-17T04:44:02.550Z,4.93
2019-01-17T04:45:02.539Z,4.92
2019-01-17T04:46:02.526Z,4.89
2019-01-17T04:47:02.516Z,4.85
2019-01-17T04:48:02.508Z,4.86
2019-01-17T04:49:02.497Z,4.85
2019-01-17T04:50:02.482Z,4.83
2019-01-17T04:51:02.475Z,4.82
2019-01-17T04:52:02.462Z,4.82
2019-01-17T04:53:02.454Z,4.82
2019-01-17T04:54:02.499Z,4.79
2019-01-17T04:55:05.351Z,4.79
2019-01-17T04:56:02.419Z,4.80
2019-01-17T04:57:02.410Z,4.79
2019-01-17T04:58:02.399Z,4.75
2019-01-17T04:59:02.387Z,4.74
2019-01-17T05:00:02.376Z,4.72
2019-01-17T05:01:02.365Z,4.77
2019-01-17T05:02:02.355Z,4.79
2019-01-17T05:03:02.347Z,4.83
2019-01-17T05:04:02.333Z,4.86
2019-01-17T05:05:02.323Z,4.89
2019-01-17T05:06:02.311Z,4.93
2019-01-17T05:07:02.299Z,4.98
2019-01-17T05:08:02.293Z,5.03
2019-01-17T05:09:02.280Z,5.01
2019-01-17T05:10:02.268Z,5.03
2019-01-17T05:11:02.257Z,5.04
2019-01-17T05:12:02.246Z,5.01
2019-01-17T05:13:02.238Z,4.98
2019-01-17T05:14:02.227Z,4.98
2019-01-17T05:15:02.215Z,4.98
2019-01-17T05:16:02.212Z,5.00
2019-01-17T05:17:02.205Z,5.01
2019-01-17T05:18:02.184Z,5.03
2019-01-17T05:19:02.173Z,5.07
2019-01-17T05:20:02.160Z,5.11
2019-01-17T05:21:02.150Z,5.13
2019-01-17T05:22:02.141Z,5.14
2019-01-17T05:23:02.132Z,5.16
2019-01-17T05:24:02.118Z,5.13
2019-01-17T05:25:02.110Z,5.13
2019-01-17T05:26:02.101Z,5.11
2019-01-17T05:27:02.086Z,5.10
2019-01-17T05:28:02.081Z,5.04
2019-01-17T05:29:02.071Z,4.96
2019-01-17T05:30:02.054Z,4.93
2019-01-17T05:31:02.044Z,4.87
2019-01-17T05:32:02.032Z,4.85
2019-01-17T05:33:02.022Z,4.89
2019-01-17T05:34:02.017Z,4.90
2019-01-17T05:35:02.003Z,4.93
2019-01-17T05:36:01.989Z,4.95
2019-01-17T05:37:01.979Z,4.96
2019-01-17T05:38:01.966Z,4.98
2019-01-17T05:39:01.959Z,4.96
2019-01-17T05:40:01.947Z,4.96
2019-01-17T05:41:01.933Z,4.96
2019-01-17T05:42:01.922Z,4.92
2019-01-17T05:43:01.911Z,4.90
2019-01-17T05:44:01.901Z,4.87
2019-01-17T05:45:01.895Z,4.86
2019-01-17T05:46:01.881Z,4.83
2019-01-17T05:47:01.870Z,4.77
2019-01-17T05:48:01.858Z,4.77
2019-01-17T05:49:01.849Z,4.82
2019-01-17T05:50:01.842Z,4.83
2019-01-17T05:51:01.827Z,4.82
2019-01-17T05:52:01.816Z,4.82
2019-01-17T05:53:01.804Z,4.83
2019-01-17T05:54:01.792Z,4.83
2019-01-17T05:55:01.781Z,4.85
2019-01-17T05:56:01.772Z,4.85
2019-01-17T05:57:01.760Z,4.82
2019-01-17T05:58:01.751Z,4.80
2019-01-17T05:59:01.757Z,4.82
2019-01-17T06:00:01.730Z,4.79
2019-01-17T06:01:01.718Z,4.80
2019-01-17T06:02:01.708Z,4.79
2019-01-17T06:03:01.697Z,4.80
2019-01-17T06:04:01.686Z,4.82
2019-01-17T06:05:01.674Z,4.82
2019-01-17T06:06:01.662Z,4.80
2019-01-17T06:07:01.656Z,4.79
2019-01-17T06:08:01.642Z,4.74
2019-01-17T06:09:01.629Z,4.74
2019-01-17T06:10:01.620Z,4.71
2019-01-17T06:11:01.608Z,4.68
2019-01-17T06:12:01.597Z,4.69
2019-01-17T06:13:01.586Z,4.71
2019-01-17T06:14:01.577Z,4.71
2019-01-17T06:15:01.578Z,4.72
2019-01-17T06:16:01.555Z,4.72
2019-01-17T06:17:01.546Z,4.75
2019-01-17T06:18:01.532Z,4.77
2019-01-17T06:19:01.522Z,4.80
2019-01-17T06:20:01.515Z,4.85
2019-01-17T06:21:01.501Z,4.85
2019-01-17T06:22:01.501Z,4.79
2019-01-17T06:23:01.480Z,4.75
2019-01-17T06:24:01.469Z,4.77
2019-01-17T06:25:01.460Z,4.80
2019-01-17T06:26:01.448Z,4.85
2019-01-17T06:27:01.436Z,4.83
2019-01-17T06:28:01.423Z,4.89
2019-01-17T06:29:01.416Z,4.90
2019-01-17T06:30:01.405Z,4.90
2019-01-17T06:31:01.393Z,4.89
2019-01-17T06:32:01.381Z,4.83
2019-01-17T06:33:01.370Z,4.80
2019-01-17T06:34:01.360Z,4.82
2019-01-17T06:35:01.353Z,4.80
2019-01-17T06:36:01.341Z,4.85
2019-01-17T06:37:01.329Z,4.86
2019-01-17T06:38:01.317Z,4.90
2019-01-17T06:39:01.309Z,4.92
2019-01-17T06:40:01.315Z,4.89
2019-01-17T06:41:01.283Z,4.82
2019-01-17T06:42:01.275Z,4.77
2019-01-17T06:43:01.264Z,4.79
2019-01-17T06:44:01.254Z,4.80
2019-01-17T06:45:01.246Z,4.85
2019-01-17T06:46:01.230Z,4.90
2019-01-17T06:47:01.220Z,4.93
2019-01-17T06:48:01.210Z,4.96
2019-01-17T06:49:01.203Z,5.00
2019-01-17T06:50:01.190Z,5.03
2019-01-17T06:51:01.178Z,5.03
2019-01-17T06:52:01.165Z,5.03
2019-01-17T06:53:01.203Z,5.03
2019-01-17T06:54:01.145Z,5.05
2019-01-17T06:55:01.135Z,5.04
2019-01-17T06:56:01.163Z,5.03
2019-01-17T06:57:01.112Z,5.05
2019-01-17T06:58:01.100Z,5.01
2019-01-17T06:59:01.089Z,4.95
2019-01-17T07:00:01.078Z,4.93
2019-01-17T07:01:01.067Z,4.92
2019-01-17T07:02:01.057Z,4.92
2019-01-17T07:03:01.046Z,4.95
2019-01-17T07:04:01.035Z,4.96
2019-01-17T07:05:01.025Z,4.96
2019-01-17T07:06:01.012Z,4.95
2019-01-17T07:07:01.001Z,4.90
2019-01-17T07:08:00.992Z,4.92
2019-01-17T07:09:00.981Z,4.95
2019-01-17T07:10:00.971Z,4.96
2019-01-17T07:11:00.960Z,4.96
2019-01-17T07:12:00.948Z,4.98
2019-01-17T07:13:00.939Z,5.04
2019-01-17T07:14:00.926Z,5.05
2019-01-17T07:15:00.927Z,5.10
2019-01-17T07:16:00.905Z,5.13
2019-01-17T07:17:00.895Z,5.11
2019-01-17T07:18:00.883Z,5.13
2019-01-17T07:19:00.873Z,5.14
2019-01-17T07:20:00.861Z,5.16
2019-01-17T07:21:00.848Z,5.16
2019-01-17T07:22:00.838Z,5.10
2019-01-17T07:23:00.828Z,5.11
2019-01-17T07:24:00.817Z,5.13
2019-01-17T07:25:00.814Z,5.18
2019-01-17T07:26:00.796Z,5.21
2019-01-17T07:27:00.784Z,5.21
2019-01-17T07:28:00.772Z,5.21
2019-01-17T07:29:00.763Z,5.26
2019-01-17T07:30:00.756Z,5.29
2019-01-17T07:31:00.744Z,5.34
2019-01-17T07:32:00.733Z,5.37
2019-01-17T07:33:00.720Z,5.41
2019-01-17T07:34:00.709Z,5.43
2019-01-17T07:35:00.696Z,5.44
2019-01-17T07:36:00.686Z,5.46
2019-01-17T07:37:00.678Z,5.43
2019-01-17T07:38:00.667Z,5.39
2019-01-17T07:39:00.654Z,5.37
2019-01-17T07:40:00.643Z,5.31
2019-01-17T07:41:00.632Z,5.28
2019-01-17T07:42:00.624Z,5.26
2019-01-17T07:43:00.610Z,5.26
2019-01-17T07:44:00.598Z,5.28
2019-01-17T07:45:00.587Z,5.29
2019-01-17T07:46:00.576Z,5.31
2019-01-17T07:47:00.567Z,5.32
2019-01-17T07:48:00.558Z,5.36
2019-01-17T07:49:00.545Z,5.37
2019-01-17T07:50:00.535Z,5.37
2019-01-17T07:51:00.523Z,5.37
2019-01-17T07:52:00.511Z,5.39
2019-01-17T07:53:00.518Z,5.39
2019-01-17T07:54:00.491Z,5.37
2019-01-17T07:55:00.482Z,5.32
2019-01-17T07:56:00.468Z,5.26
2019-01-17T07:57:00.458Z,5.25
2019-01-17T07:58:00.447Z,5.23
2019-01-17T07:59:00.437Z,5.19
2019-01-17T08:00:00.426Z,5.18
2019-01-17T08:01:00.416Z,5.18
2019-01-17T08:02:00.403Z,5.11
2019-01-17T08:03:00.394Z,5.05
2019-01-17T08:04:00.382Z,5.03
2019-01-17T08:05:00.372Z,5.03
2019-01-17T08:06:00.368Z,5.08
2019-01-17T08:07:00.348Z,5.08
2019-01-17T08:08:00.339Z,5.10
2019-01-17T08:09:00.330Z,5.14
2019-01-17T08:10:00.324Z,5.13
2019-01-17T08:11:00.309Z,5.16
2019-01-17T08:12:05.017Z,5.16
2019-01-17T08:13:00.286Z,5.16
2019-01-17T08:14:00.274Z,5.19
2019-01-17T08:15:00.267Z,5.18
2019-01-17T08:16:00.254Z,5.19
2019-01-17T08:17:00.246Z,5.22
2019-01-17T08:18:00.232Z,5.19
2019-01-17T08:19:00.220Z,5.13
2019-01-17T08:20:00.209Z,5.08
2019-01-17T08:21:00.208Z,5.07
2019-01-17T08:22:00.190Z,5.10
2019-01-17T08:23:00.178Z,5.11
2019-01-17T08:24:00.169Z,5.18
2019-01-17T08:25:00.173Z,5.19
2019-01-17T08:26:00.147Z,5.18
2019-01-17T08:27:00.135Z,5.23
2019-01-17T08:28:00.123Z,5.23
2019-01-17T08:29:00.115Z,5.25
2019-01-17T08:30:00.156Z,5.23
2019-01-17T08:31:00.092Z,5.25
2019-01-17T08:32:00.082Z,5.25
2019-01-17T08:33:00.072Z,5.28
2019-01-17T08:34:00.061Z,5.21
2019-01-17T08:35:00.052Z,5.21
2019-01-17T08:36:00.036Z,5.23
2019-01-17T08:37:00.028Z,5.29
2019-01-17T08:38:00.019Z,5.28
2019-01-17T08:39:00.011Z,5.28
2019-01-17T08:39:59.995Z,5.36
2019-01-17T08:40:59.984Z,5.36
2019-01-17T08:41:59.974Z,5.44
2019-01-17T08:43:00.007Z,5.56
2019-01-17T08:43:59.950Z,5.62
2019-01-17T08:44:59.944Z,5.69
2019-01-17T08:45:59.930Z,5.66
2019-01-17T08:46:59.921Z,5.63
2019-01-17T08:47:59.908Z,5.69
2019-01-17T08:48:59.898Z,5.74
2019-01-17T08:49:59.887Z,5.77
2019-01-17T08:50:59.878Z,5.83
2019-01-17T08:51:59.869Z,5.83
2019-01-17T08:52:59.858Z,5.77
2019-01-17T08:53:59.846Z,5.74
2019-01-17T08:54:59.835Z,5.74
2019-01-17T08:56:00.934Z,5.74
2019-01-17T08:56:59.812Z,5.69
2019-01-17T08:57:59.800Z,5.69
2019-01-17T08:58:59.795Z,5.73
2019-01-17T08:59:59.784Z,5.77
2019-01-17T09:00:59.771Z,5.84
2019-01-17T09:01:59.756Z,5.87
2019-01-17T09:02:59.748Z,5.85
2019-01-17T09:03:59.737Z,5.84
2019-01-17T09:04:59.725Z,5.85
2019-01-17T09:05:59.719Z,5.88
2019-01-17T09:06:59.703Z,5.87
2019-01-17T09:07:59.693Z,5.87
2019-01-17T09:09:00.674Z,5.87
2019-01-17T09:09:59.671Z,5.83
2019-01-17T09:10:59.664Z,5.83
2019-01-17T09:11:59.651Z,5.81
2019-01-17T09:12:59.639Z,5.78
2019-01-17T09:13:59.628Z,5.81
2019-01-17T09:14:59.617Z,5.83
2019-01-17T09:15:59.608Z,5.77
2019-01-17T09:16:59.597Z,5.80
2019-01-17T09:17:59.587Z,5.83
2019-01-17T09:18:59.574Z,5.90
2019-01-17T09:19:59.561Z,5.99
2019-01-17T09:20:59.552Z,6.03
2019-01-17T09:21:59.548Z,6.10
2019-01-17T09:22:59.533Z,6.21
2019-01-17T09:23:59.520Z,6.32
2019-01-17T09:24:59.512Z,6.34
2019-01-17T09:25:59.500Z,6.39
2019-01-17T09:26:59.488Z,6.41
2019-01-17T09:27:59.479Z,6.37
2019-01-17T09:28:59.468Z,6.32
2019-01-17T09:29:59.468Z,6.29
2019-01-17T09:30:59.445Z,6.23
2019-01-17T09:31:59.435Z,6.21
2019-01-17T09:32:59.423Z,6.20
2019-01-17T09:33:59.414Z,6.20
2019-01-17T09:34:59.402Z,6.20
2019-01-17T09:35:59.392Z,6.19
2019-01-17T09:36:59.381Z,6.19
2019-01-17T09:37:59.371Z,6.23
2019-01-17T09:38:59.363Z,6.24
2019-01-17T09:39:59.349Z,6.27
2019-01-17T09:40:59.339Z,6.38
2019-01-17T09:41:59.330Z,6.37
2019-01-17T09:42:59.320Z,6.38
2019-01-17T09:43:59.308Z,6.37
2019-01-17T09:44:59.293Z,6.34
2019-01-17T09:45:59.285Z,6.39
2019-01-17T09:46:59.280Z,6.41
2019-01-17T09:47:59.260Z,6.37
2019-01-17T09:48:59.250Z,6.31
2019-01-17T09:49:59.241Z,6.23
2019-01-17T09:50:59.231Z,6.24
2019-01-17T09:51:59.220Z,6.27
2019-01-17T09:52:59.211Z,6.35
2019-01-17T09:53:59.197Z,6.29
2019-01-17T09:54:59.187Z,6.26
2019-01-17T09:55:59.174Z,6.23
2019-01-17T09:56:59.164Z,6.26
2019-01-17T09:57:59.154Z,6.24
2019-01-17T09:58:59.144Z,6.21
2019-01-17T09:59:59.133Z,6.20
2019-01-17T10:00:59.126Z,6.20
2019-01-17T10:01:59.122Z,6.24
2019-01-17T10:02:59.099Z,6.23
2019-01-17T10:03:59.088Z,6.26
2019-01-17T10:04:59.077Z,6.35
2019-01-17T10:05:59.068Z,6.34
2019-01-17T10:06:59.060Z,6.32
2019-01-17T10:07:59.047Z,6.31
2019-01-17T10:08:59.037Z,6.31
2019-01-17T10:09:59.025Z,6.31
2019-01-17T10:10:59.015Z,6.26
2019-01-17T10:11:59.003Z,6.21
2019-01-17T10:12:58.992Z,6.23
2019-01-17T10:13:58.985Z,6.27
2019-01-17T10:14:58.973Z,6.35
2019-01-17T10:15:58.965Z,6.39
2019-01-17T10:16:58.949Z,6.47
2019-01-17T10:17:58.939Z,6.47
2019-01-17T10:18:58.929Z,6.50
2019-01-17T10:19:58.917Z,6.56
2019-01-17T10:20:58.908Z,6.63
2019-01-17T10:21:58.901Z,6.70
2019-01-17T10:22:58.885Z,6.75
2019-01-17T10:23:58.875Z,6.77
2019-01-17T10:24:58.863Z,6.81
2019-01-17T10:25:58.854Z,6.85
2019-01-17T10:26:58.844Z,6.80
2019-01-17T10:27:58.829Z,6.75
2019-01-17T10:28:59.991Z,6.78
2019-01-17T10:29:58.808Z,6.75
2019-01-17T10:30:58.799Z,6.68
2019-01-17T10:31:59.574Z,6.67
2019-01-17T10:32:58.777Z,6.53
2019-01-17T10:33:58.767Z,6.53
2019-01-17T10:34:58.755Z,6.53
2019-01-17T10:35:58.744Z,6.52
2019-01-17T10:36:58.736Z,6.56
2019-01-17T10:37:58.723Z,6.63
2019-01-17T10:38:58.711Z,6.62
2019-01-17T10:39:58.705Z,6.68
2019-01-17T10:40:58.692Z,6.72
2019-01-17T10:41:58.678Z,6.68
2019-01-17T10:42:58.669Z,6.68
2019-01-17T10:43:58.658Z,6.72
2019-01-17T10:44:58.651Z,6.72
2019-01-17T10:45:58.634Z,6.80
2019-01-17T10:46:58.623Z,6.78
2019-01-17T10:48:00.310Z,6.71
2019-01-17T10:48:58.602Z,6.74
2019-01-17T10:49:58.595Z,6.71
2019-01-17T10:50:58.583Z,6.68
2019-01-17T10:51:58.568Z,6.70
2019-01-17T10:52:58.558Z,6.71
2019-01-17T10:53:58.547Z,6.74
2019-01-17T10:54:58.536Z,6.77
2019-01-17T10:55:58.527Z,6.81
2019-01-17T10:56:58.513Z,6.77
2019-01-17T10:57:58.504Z,6.72
2019-01-17T10:58:58.491Z,6.70
2019-01-17T10:59:58.484Z,6.67
2019-01-17T11:00:58.471Z,6.63
2019-01-17T11:01:58.462Z,6.60
2019-01-17T11:02:58.448Z,6.57
2019-01-17T11:03:58.438Z,6.59
2019-01-17T11:04:58.429Z,6.62
2019-01-17T11:05:58.416Z,6.68
2019-01-17T11:06:58.408Z,6.72
2019-01-17T11:07:58.435Z,6.75
2019-01-17T11:08:58.389Z,6.71
2019-01-17T11:09:58.373Z,6.78
2019-01-17T11:10:58.362Z,6.80
2019-01-17T11:11:58.349Z,6.80
2019-01-17T11:12:58.341Z,6.75
2019-01-17T11:13:58.329Z,6.74
2019-01-17T11:14:58.320Z,6.74
2019-01-17T11:15:58.310Z,6.78
2019-01-17T11:16:58.295Z,6.82
2019-01-17T11:17:58.291Z,6.80
2019-01-17T11:18:58.275Z,6.81
2019-01-17T11:19:58.264Z,6.86
2019-01-17T11:20:58.252Z,6.92
2019-01-17T11:21:58.241Z,6.96
2019-01-17T11:22:58.231Z,6.89
2019-01-17T11:23:58.221Z,6.85
2019-01-17T11:24:58.212Z,6.81
2019-01-17T11:25:58.207Z,6.82
2019-01-17T11:26:58.187Z,6.85
2019-01-17T11:27:58.174Z,6.89
2019-01-17T11:28:58.177Z,6.85
2019-01-17T11:29:58.154Z,6.85
2019-01-17T11:30:58.143Z,6.89
2019-01-17T11:31:58.131Z,6.94
2019-01-17T11:32:58.120Z,7.04
2019-01-17T11:33:58.127Z,7.09
2019-01-17T11:34:58.100Z,7.14
2019-01-17T11:35:58.088Z,7.21
2019-01-17T11:36:58.078Z,7.23
2019-01-17T11:37:58.065Z,7.27
2019-01-17T11:38:58.055Z,7.18
2019-01-17T11:39:58.046Z,7.08
2019-01-17T11:40:58.035Z,7.08
2019-01-17T11:41:58.023Z,7.04
2019-01-17T11:42:58.013Z,7.08
2019-01-17T11:43:58.001Z,7.12
2019-01-17T11:44:57.991Z,7.18
2019-01-17T11:45:57.979Z,7.18
2019-01-17T11:46:57.974Z,7.16
2019-01-17T11:47:57.960Z,7.18
2019-01-17T11:48:57.945Z,7.21
2019-01-17T11:49:57.937Z,7.26
2019-01-17T11:50:57.924Z,7.30
2019-01-17T11:51:57.920Z,7.23
2019-01-17T11:52:57.902Z,7.18
2019-01-17T11:53:57.892Z,7.16
2019-01-17T11:54:57.880Z,7.14
2019-01-17T11:55:57.869Z,7.14
2019-01-17T11:56:57.859Z,7.14
2019-01-17T11:57:57.846Z,7.12
2019-01-17T11:59:00.214Z,7.11
2019-01-17T11:59:57.825Z,7.12
2019-01-17T12:00:57.816Z,7.11
2019-01-17T12:01:57.801Z,7.14
2019-01-17T12:02:57.796Z,7.16
2019-01-17T12:03:57.782Z,7.16
2019-01-17T12:04:57.769Z,7.09
2019-01-17T12:05:57.760Z,7.07
2019-01-17T12:06:57.748Z,7.07
2019-01-17T12:07:57.736Z,7.04
2019-01-17T12:08:57.727Z,7.04
2019-01-17T12:09:57.716Z,6.99
2019-01-17T12:10:57.705Z,6.99
2019-01-17T12:11:57.694Z,7.00
2019-01-17T12:12:57.680Z,6.97
2019-01-17T12:13:57.673Z,6.89
2019-01-17T12:14:57.662Z,6.81
2019-01-17T12:15:57.649Z,6.74
2019-01-17T12:16:57.641Z,6.72
2019-01-17T12:17:57.627Z,6.60
2019-01-17T12:18:57.621Z,6.44
2019-01-17T12:19:57.604Z,6.31
2019-01-17T12:20:57.595Z,6.21
2019-01-17T12:21:57.585Z,6.14
2019-01-17T12:22:57.574Z,6.06
2019-01-17T12:23:57.563Z,5.98
2019-01-17T12:24:57.552Z,5.87
2019-01-17T12:25:57.542Z,5.81
2019-01-17T12:26:57.528Z,5.70
2019-01-17T12:27:57.518Z,5.75
2019-01-17T12:28:57.507Z,5.80
2019-01-17T12:29:57.501Z,5.85
2019-01-17T12:30:57.496Z,5.98
2019-01-17T12:31:57.474Z,6.01
2019-01-17T12:32:57.462Z,6.01
2019-01-17T12:33:57.455Z,5.98
2019-01-17T12:34:57.442Z,5.98
2019-01-17T12:35:57.432Z,6.08
2019-01-17T12:36:57.421Z,6.10
2019-01-17T12:37:57.407Z,6.13
2019-01-17T12:38:57.404Z,6.03
2019-01-17T12:39:57.388Z,6.11
2019-01-17T12:40:57.376Z,6.16
2019-01-17T12:41:57.369Z,6.17
2019-01-17T12:42:57.353Z,6.14
2019-01-17T12:43:57.344Z,6.10
2019-01-17T12:44:57.334Z,6.11
2019-01-17T12:45:57.322Z,6.10
2019-01-17T12:46:57.311Z,6.11
2019-01-17T12:47:57.301Z,6.16
2019-01-17T12:48:57.288Z,6.16
2019-01-17T12:49:57.280Z,6.13
2019-01-17T12:50:57.368Z,6.16
2019-01-17T12:51:57.256Z,6.14
2019-01-17T12:52:57.244Z,6.10
2019-01-17T12:53:57.237Z,6.10
2019-01-17T12:54:57.222Z,6.05
2019-01-17T12:55:57.222Z,6.08
2019-01-17T12:56:57.201Z,6.11
2019-01-17T12:57:57.192Z,6.14
2019-01-17T12:58:57.177Z,6.13
2019-01-17T12:59:57.170Z,6.13
2019-01-17T13:00:57.159Z,6.14
2019-01-17T13:01:57.149Z,6.08
2019-01-17T13:02:57.138Z,6.08
2019-01-17T13:03:57.131Z,6.10
2019-01-17T13:04:57.115Z,6.10
2019-01-17T13:05:57.108Z,6.05
2019-01-17T13:06:57.091Z,6.03
2019-01-17T13:07:57.086Z,5.95
2019-01-17T13:08:57.068Z,5.87
2019-01-17T13:09:57.058Z,5.83
2019-01-17T13:10:57.059Z,5.77
2019-01-17T13:11:57.035Z,5.77
2019-01-17T13:12:57.027Z,5.75
2019-01-17T13:13:57.015Z,5.67
2019-01-17T13:14:57.002Z,5.60
2019-01-17T13:15:56.994Z,5.52
2019-01-17T13:16:56.993Z,5.52
2019-01-17T13:17:56.971Z,5.48